sensor_id;sensor_type;location;lat;lon;timestamp;pressure;altitude;pressure_sealevel;temperature
15360;BMP280;7779;49.596;11.070;2023-05-09T00:00:44;98633.81;;;18.44
15360;BMP280;7779;49.596;11.070;2023-05-09T00:03:10;98641.41;;;18.42
15360;BMP280;7779;49.596;11.070;2023-05-09T00:05:37;98637.09;;;18.40
15360;BMP280;7779;49.596;11.070;2023-05-09T00:08:04;98626.84;;;18.37
15360;BMP280;7779;49.596;11.070;2023-05-09T00:10:29;98635.28;;;18.36
15360;BMP280;7779;49.596;11.070;2023-05-09T00:12:55;98630.09;;;18.33
15360;BMP280;7779;49.596;11.070;2023-05-09T00:15:21;98632.63;;;18.32
15360;BMP280;7779;49.596;11.070;2023-05-09T00:17:48;98629.97;;;18.29
15360;BMP280;7779;49.596;11.070;2023-05-09T00:20:14;98635.00;;;18.27
15360;BMP280;7779;49.596;11.070;2023-05-09T00:22:41;98623.03;;;18.23
15360;BMP280;7779;49.596;11.070;2023-05-09T00:25:08;98627.25;;;18.23
15360;BMP280;7779;49.596;11.070;2023-05-09T00:27:34;98633.06;;;18.20
15360;BMP280;7779;49.596;11.070;2023-05-09T00:30:00;98630.47;;;18.19
15360;BMP280;7779;49.596;11.070;2023-05-09T00:32:26;98627.94;;;18.17
15360;BMP280;7779;49.596;11.070;2023-05-09T00:34:53;98632.94;;;18.16
15360;BMP280;7779;49.596;11.070;2023-05-09T00:37:19;98629.50;;;18.14
15360;BMP280;7779;49.596;11.070;2023-05-09T00:39:49;98626.91;;;18.12
15360;BMP280;7779;49.596;11.070;2023-05-09T00:42:15;98625.16;;;18.10
15360;BMP280;7779;49.596;11.070;2023-05-09T00:44:41;98616.59;;;18.08
15360;BMP280;7779;49.596;11.070;2023-05-09T00:47:07;98621.56;;;18.05
15360;BMP280;7779;49.596;11.070;2023-05-09T00:49:33;98613.91;;;18.03
15360;BMP280;7779;49.596;11.070;2023-05-09T00:51:59;98616.41;;;18.02
15360;BMP280;7779;49.596;11.070;2023-05-09T00:54:26;98609.63;;;18.01
15360;BMP280;7779;49.596;11.070;2023-05-09T00:56:52;98605.28;;;17.98
15360;BMP280;7779;49.596;11.070;2023-05-09T00:59:18;98602.72;;;17.97
15360;BMP280;7779;49.596;11.070;2023-05-09T01:01:44;98606.88;;;17.95
15360;BMP280;7779;49.596;11.070;2023-05-09T01:04:11;98595.81;;;17.93
15360;BMP280;7779;49.596;11.070;2023-05-09T01:07:10;98599.19;;;17.92
15360;BMP280;7779;49.596;11.070;2023-05-09T01:09:54;98605.00;;;17.90
15360;BMP280;7779;49.596;11.070;2023-05-09T01:15:11;98591.38;;;17.86
15360;BMP280;7779;49.596;11.070;2023-05-09T01:18:05;98593.84;;;17.83
15360;BMP280;7779;49.596;11.070;2023-05-09T01:20:42;98586.19;;;17.82
15360;BMP280;7779;49.596;11.070;2023-05-09T01:23:50;98588.66;;;17.80
15360;BMP280;7779;49.596;11.070;2023-05-09T01:32:18;98581.66;;;17.73
15360;BMP280;7779;49.596;11.070;2023-05-09T01:34:46;98582.50;;;17.72
15360;BMP280;7779;49.596;11.070;2023-05-09T01:37:15;98576.59;;;17.73
15360;BMP280;7779;49.596;11.070;2023-05-09T01:39:47;98583.41;;;17.74
15360;BMP280;7779;49.596;11.070;2023-05-09T01:42:17;98583.41;;;17.74
15360;BMP280;7779;49.596;11.070;2023-05-09T01:44:46;98578.34;;;17.74
15360;BMP280;7779;49.596;11.070;2023-05-09T01:47:14;98571.53;;;17.73
15360;BMP280;7779;49.596;11.070;2023-05-09T01:49:42;98574.88;;;17.72
15360;BMP280;7779;49.596;11.070;2023-05-09T01:52:17;98578.22;;;17.71
15360;BMP280;7779;49.596;11.070;2023-05-09T01:54:45;98574.78;;;17.69
15360;BMP280;7779;49.596;11.070;2023-05-09T01:57:12;98575.56;;;17.67
15360;BMP280;7779;49.596;11.070;2023-05-09T01:59:43;98572.97;;;17.65
15360;BMP280;7779;49.596;11.070;2023-05-09T02:02:10;98572.06;;;17.63
15360;BMP280;7779;49.596;11.070;2023-05-09T02:04:36;98572.81;;;17.61
15360;BMP280;7779;49.596;11.070;2023-05-09T02:07:04;98568.56;;;17.60
15360;BMP280;7779;49.596;11.070;2023-05-09T02:09:31;98560.84;;;17.57
15360;BMP280;7779;49.596;11.070;2023-05-09T02:11:56;98560.81;;;17.56
15360;BMP280;7779;49.596;11.070;2023-05-09T02:14:22;98558.25;;;17.56
15360;BMP280;7779;49.596;11.070;2023-05-09T02:16:48;98567.50;;;17.54
15360;BMP280;7779;49.596;11.070;2023-05-09T02:19:14;98572.50;;;17.52
15360;BMP280;7779;49.596;11.070;2023-05-09T02:21:41;98562.34;;;17.51
15360;BMP280;7779;49.596;11.070;2023-05-09T02:24:09;98569.00;;;17.49
15360;BMP280;7779;49.596;11.070;2023-05-09T02:26:35;98570.63;;;17.47
15360;BMP280;7779;49.596;11.070;2023-05-09T02:29:04;98570.59;;;17.45
15360;BMP280;7779;49.596;11.070;2023-05-09T02:31:32;98572.25;;;17.45
15360;BMP280;7779;49.596;11.070;2023-05-09T02:33:58;98573.88;;;17.43
15360;BMP280;7779;49.596;11.070;2023-05-09T02:36:25;98571.28;;;17.41
15360;BMP280;7779;49.596;11.070;2023-05-09T02:38:52;98574.66;;;17.40
15360;BMP280;7779;49.596;11.070;2023-05-09T02:41:18;98569.53;;;17.39
15360;BMP280;7779;49.596;11.070;2023-05-09T02:43:44;98570.31;;;17.38
15360;BMP280;7779;49.596;11.070;2023-05-09T02:46:10;98564.34;;;17.36
15360;BMP280;7779;49.596;11.070;2023-05-09T02:48:36;98562.66;;;17.35
15360;BMP280;7779;49.596;11.070;2023-05-09T02:51:02;98570.25;;;17.35
15360;BMP280;7779;49.596;11.070;2023-05-09T02:53:27;98560.91;;;17.34
15360;BMP280;7779;49.596;11.070;2023-05-09T02:55:53;98564.28;;;17.33
15360;BMP280;7779;49.596;11.070;2023-05-09T02:58:19;98554.94;;;17.32
15360;BMP280;7779;49.596;11.070;2023-05-09T03:00:45;98558.31;;;17.31
15360;BMP280;7779;49.596;11.070;2023-05-09T03:03:12;98558.31;;;17.31
15360;BMP280;7779;49.596;11.070;2023-05-09T03:05:38;98547.16;;;17.26
15360;BMP280;7779;49.596;11.070;2023-05-09T03:08:04;98554.75;;;17.26
15360;BMP280;7779;49.596;11.070;2023-05-09T03:10:30;98555.47;;;17.23
15360;BMP280;7779;49.596;11.070;2023-05-09T03:12:56;98557.16;;;17.23
15360;BMP280;7779;49.596;11.070;2023-05-09T03:15:22;98555.47;;;17.22
15360;BMP280;7779;49.596;11.070;2023-05-09T03:17:48;98558.84;;;17.22
15360;BMP280;7779;49.596;11.070;2023-05-09T03:20:14;98551.19;;;17.21
15360;BMP280;7779;49.596;11.070;2023-05-09T03:22:40;98550.28;;;17.19
15360;BMP280;7779;49.596;11.070;2023-05-09T03:25:08;98550.22;;;17.18
15360;BMP280;7779;49.596;11.070;2023-05-09T03:27:34;98543.47;;;17.17
15360;BMP280;7779;49.596;11.070;2023-05-09T03:30:02;98546.75;;;17.16
15360;BMP280;7779;49.596;11.070;2023-05-09T03:32:27;98550.91;;;17.14
15360;BMP280;7779;49.596;11.070;2023-05-09T03:34:53;98556.75;;;17.11
15360;BMP280;7779;49.596;11.070;2023-05-09T03:37:19;98557.53;;;17.10
15360;BMP280;7779;49.596;11.070;2023-05-09T03:39:46;98554.09;;;17.08
15360;BMP280;7779;49.596;11.070;2023-05-09T03:42:12;98558.31;;;17.08
15360;BMP280;7779;49.596;11.070;2023-05-09T03:44:39;98551.50;;;17.07
15360;BMP280;7779;49.596;11.070;2023-05-09T03:47:05;98546.44;;;17.07
15360;BMP280;7779;49.596;11.070;2023-05-09T03:49:36;98541.38;;;17.07
15360;BMP280;7779;49.596;11.070;2023-05-09T03:52:02;98549.03;;;17.08
15360;BMP280;7779;49.596;11.070;2023-05-09T03:54:29;98539.75;;;17.09
15360;BMP280;7779;49.596;11.070;2023-05-09T03:56:55;98544.88;;;17.10
15360;BMP280;7779;49.596;11.070;2023-05-09T03:59:21;98554.22;;;17.11
15360;BMP280;7779;49.596;11.070;2023-05-09T04:01:47;98553.38;;;17.12
15360;BMP280;7779;49.596;11.070;2023-05-09T04:04:13;98556.03;;;17.15
15360;BMP280;7779;49.596;11.070;2023-05-09T04:06:39;98558.56;;;17.15
15360;BMP280;7779;49.596;11.070;2023-05-09T04:09:07;98552.75;;;17.18
15360;BMP280;7779;49.596;11.070;2023-05-09T04:11:33;98551.13;;;17.20
15360;BMP280;7779;49.596;11.070;2023-05-09T04:14:00;98551.19;;;17.21
15360;BMP280;7779;49.596;11.070;2023-05-09T04:16:30;98555.59;;;17.26
15360;BMP280;7779;49.596;11.070;2023-05-09T04:18:55;98561.63;;;17.30
15360;BMP280;7779;49.596;11.070;2023-05-09T04:21:21;98559.22;;;17.33
15360;BMP280;7779;49.596;11.070;2023-05-09T04:23:50;98564.34;;;17.36
15360;BMP280;7779;49.596;11.070;2023-05-09T04:26:19;98563.66;;;17.40
15360;BMP280;7779;49.596;11.070;2023-05-09T04:28:48;98553.63;;;17.43
15360;BMP280;7779;49.596;11.070;2023-05-09T04:31:15;98552.88;;;17.45
15360;BMP280;7779;49.596;11.070;2023-05-09T04:33:44;98549.56;;;17.48
15360;BMP280;7779;49.596;11.070;2023-05-09T04:36:10;98549.63;;;17.49
15360;BMP280;7779;49.596;11.070;2023-05-09T04:38:36;98548.00;;;17.51
15360;BMP280;7779;49.596;11.070;2023-05-09T04:41:06;98550.59;;;17.54
15360;BMP280;7779;49.596;11.070;2023-05-09T04:43:32;98547.34;;;17.57
15360;BMP280;7779;49.596;11.070;2023-05-09T04:45:57;98551.69;;;17.60
15360;BMP280;7779;49.596;11.070;2023-05-09T04:48:23;98549.25;;;17.63
15360;BMP280;7779;49.596;11.070;2023-05-09T04:50:49;98546.13;;;17.72
15360;BMP280;7779;49.596;11.070;2023-05-09T04:53:15;98548.91;;;17.79
15360;BMP280;7779;49.596;11.070;2023-05-09T04:55:41;98543.22;;;17.86
15360;BMP280;7779;49.596;11.070;2023-05-09T04:58:08;98539.25;;;17.94
15360;BMP280;7779;49.596;11.070;2023-05-09T05:00:34;98542.78;;;17.99
15360;BMP280;7779;49.596;11.070;2023-05-09T05:03:00;98549.81;;;18.07
15360;BMP280;7779;49.596;11.070;2023-05-09T05:05:27;98545.81;;;18.14
15360;BMP280;7779;49.596;11.070;2023-05-09T05:07:53;98540.97;;;18.21
15360;BMP280;7779;49.596;11.070;2023-05-09T05:10:22;98550.50;;;18.28
15360;BMP280;7779;49.596;11.070;2023-05-09T05:12:53;98542.19;;;18.34
15360;BMP280;7779;49.596;11.070;2023-05-09T05:15:19;98537.25;;;18.38
15360;BMP280;7779;49.596;11.070;2023-05-09T05:17:46;98538.19;;;18.41
15360;BMP280;7779;49.596;11.070;2023-05-09T05:20:12;98539.94;;;18.42
15360;BMP280;7779;49.596;11.070;2023-05-09T05:22:43;98534.03;;;18.43
15360;BMP280;7779;49.596;11.070;2023-05-09T05:25:09;98540.88;;;18.46
15360;BMP280;7779;49.596;11.070;2023-05-09T05:27:36;98541.78;;;18.49
15360;BMP280;7779;49.596;11.070;2023-05-09T05:30:03;98544.59;;;18.57
15360;BMP280;7779;49.596;11.070;2023-05-09T05:32:29;98536.28;;;18.64
15360;BMP280;7779;49.596;11.070;2023-05-09T05:34:55;98535.69;;;18.72
15360;BMP280;7779;49.596;11.070;2023-05-09T05:37:22;98537.59;;;18.79
15360;BMP280;7779;49.596;11.070;2023-05-09T05:39:47;98532.75;;;18.88
15360;BMP280;7779;49.596;11.070;2023-05-09T05:42:13;98532.16;;;18.96
15360;BMP280;7779;49.596;11.070;2023-05-09T05:44:39;98532.41;;;19.05
15360;BMP280;7779;49.596;11.070;2023-05-09T05:47:05;98527.53;;;19.13
15360;BMP280;7779;49.596;11.070;2023-05-09T05:49:31;98522.66;;;19.20
15360;BMP280;7779;49.596;11.070;2023-05-09T05:51:57;98522.00;;;19.28
15360;BMP280;7779;49.596;11.070;2023-05-09T05:54:24;98517.94;;;19.35
15360;BMP280;7779;49.596;11.070;2023-05-09T05:56:52;98517.50;;;19.51
15360;BMP280;7779;49.596;11.070;2023-05-09T05:59:18;98508.72;;;19.73
15360;BMP280;7779;49.596;11.070;2023-05-09T06:01:44;98503.38;;;19.97
15360;BMP280;7779;49.596;11.070;2023-05-09T06:04:10;98501.31;;;20.17
15360;BMP280;7779;49.596;11.070;2023-05-09T06:06:36;98501.72;;;20.38
15360;BMP280;7779;49.596;11.070;2023-05-09T06:09:02;98499.66;;;20.62
15360;BMP280;7779;49.596;11.070;2023-05-09T06:11:28;98500.22;;;20.88
15360;BMP280;7779;49.596;11.070;2023-05-09T06:13:53;98496.41;;;21.11
15360;BMP280;7779;49.596;11.070;2023-05-09T06:16:19;98484.91;;;21.32
15360;BMP280;7779;49.596;11.070;2023-05-09T06:18:48;98479.31;;;21.53
15360;BMP280;7779;49.596;11.070;2023-05-09T06:21:13;98474.53;;;21.72
15360;BMP280;7779;49.596;11.070;2023-05-09T06:23:39;98473.91;;;21.89
15360;BMP280;7779;49.596;11.070;2023-05-09T06:26:05;98474.97;;;22.03
15360;BMP280;7779;49.596;11.070;2023-05-09T06:28:31;98470.84;;;22.12
15360;BMP280;7779;49.596;11.070;2023-05-09T06:30:57;98473.50;;;22.17
15360;BMP280;7779;49.596;11.070;2023-05-09T06:33:23;98474.41;;;22.20
15360;BMP280;7779;49.596;11.070;2023-05-09T06:35:49;98469.28;;;22.22
15360;BMP280;7779;49.596;11.070;2023-05-09T06:38:14;98473.56;;;22.23
15360;BMP280;7779;49.596;11.070;2023-05-09T06:40:40;98471.88;;;22.23
15360;BMP280;7779;49.596;11.070;2023-05-09T06:43:06;98472.75;;;22.25
15360;BMP280;7779;49.596;11.070;2023-05-09T06:45:32;98469.41;;;22.28
15360;BMP280;7779;49.596;11.070;2023-05-09T06:47:57;98470.28;;;22.30
15360;BMP280;7779;49.596;11.070;2023-05-09T06:50:23;98454.94;;;22.30
15360;BMP280;7779;49.596;11.070;2023-05-09T06:52:49;98451.53;;;22.31
15360;BMP280;7779;49.596;11.070;2023-05-09T06:55:15;98447.31;;;22.33
15360;BMP280;7779;49.596;11.070;2023-05-09T06:57:40;98437.97;;;22.34
15360;BMP280;7779;49.596;11.070;2023-05-09T07:00:07;98442.25;;;22.35
15360;BMP280;7779;49.596;11.070;2023-05-09T07:02:34;98428.66;;;22.36
15360;BMP280;7779;49.596;11.070;2023-05-09T07:04:59;98421.91;;;22.40
15360;BMP280;7779;49.596;11.070;2023-05-09T07:07:25;98419.38;;;22.44
15360;BMP280;7779;49.596;11.070;2023-05-09T07:09:51;98419.44;;;22.50
15360;BMP280;7779;49.596;11.070;2023-05-09T07:12:17;98422.13;;;22.61
15360;BMP280;7779;49.596;11.070;2023-05-09T07:14:42;98418.88;;;22.75
15360;BMP280;7779;49.596;11.070;2023-05-09T07:17:09;98417.34;;;22.89
15360;BMP280;7779;49.596;11.070;2023-05-09T07:19:34;98415.81;;;23.07
15360;BMP280;7779;49.596;11.070;2023-05-09T07:22:00;98413.38;;;23.23
15360;BMP280;7779;49.596;11.070;2023-05-09T07:24:26;98400.66;;;23.35
15360;BMP280;7779;49.596;11.070;2023-05-09T07:26:52;98402.44;;;23.44
15360;BMP280;7779;49.596;11.070;2023-05-09T07:29:17;98407.59;;;23.47
15360;BMP280;7779;49.596;11.070;2023-05-09T07:31:45;98407.63;;;23.48
15360;BMP280;7779;49.596;11.070;2023-05-09T07:34:10;98411.88;;;23.46
15360;BMP280;7779;49.596;11.070;2023-05-09T07:36:36;98401.59;;;23.43
15360;BMP280;7779;49.596;11.070;2023-05-09T07:39:03;98402.41;;;23.41
15360;BMP280;7779;49.596;11.070;2023-05-09T07:41:30;98403.25;;;23.38
15360;BMP280;7779;49.596;11.070;2023-05-09T07:43:56;98393.88;;;23.34
15360;BMP280;7779;49.596;11.070;2023-05-09T07:46:21;98385.34;;;23.34
15360;BMP280;7779;49.596;11.070;2023-05-09T07:48:47;98387.88;;;23.32
15360;BMP280;7779;49.596;11.070;2023-05-09T07:51:13;98374.25;;;23.33
15360;BMP280;7779;49.596;11.070;2023-05-09T07:53:38;98371.69;;;23.33
15360;BMP280;7779;49.596;11.070;2023-05-09T07:56:04;98375.97;;;23.34
15360;BMP280;7779;49.596;11.070;2023-05-09T07:58:33;98374.25;;;23.33
15360;BMP280;7779;49.596;11.070;2023-05-09T08:00:58;98375.94;;;23.31
15360;BMP280;7779;49.596;11.070;2023-05-09T08:03:24;98375.06;;;23.29
15360;BMP280;7779;49.596;11.070;2023-05-09T08:05:54;98369.97;;;23.29
15360;BMP280;7779;49.596;11.070;2023-05-09T08:08:22;98367.41;;;23.31
15360;BMP280;7779;49.596;11.070;2023-05-09T08:10:47;98361.47;;;23.35
15360;BMP280;7779;49.596;11.070;2023-05-09T08:13:13;98360.63;;;23.34
15360;BMP280;7779;49.596;11.070;2023-05-09T08:15:39;98360.63;;;23.34
15360;BMP280;7779;49.596;11.070;2023-05-09T08:18:05;98352.91;;;23.30
15360;BMP280;7779;49.596;11.070;2023-05-09T08:20:31;98355.47;;;23.27
15360;BMP280;7779;49.596;11.070;2023-05-09T08:22:56;98346.91;;;23.23
15360;BMP280;7779;49.596;11.070;2023-05-09T08:25:22;98346.06;;;23.21
15360;BMP280;7779;49.596;11.070;2023-05-09T08:27:48;98333.28;;;23.21
15360;BMP280;7779;49.596;11.070;2023-05-09T08:30:14;98334.97;;;23.19
15360;BMP280;7779;49.596;11.070;2023-05-09T08:32:40;98342.63;;;23.18
15360;BMP280;7779;49.596;11.070;2023-05-09T08:35:06;98333.25;;;23.15
15360;BMP280;7779;49.596;11.070;2023-05-09T08:37:35;98330.69;;;23.15
15360;BMP280;7779;49.596;11.070;2023-05-09T08:40:04;98321.28;;;23.14
15360;BMP280;7779;49.596;11.070;2023-05-09T08:42:36;98317.91;;;23.14
15360;BMP280;7779;49.596;11.070;2023-05-09T08:45:10;98314.47;;;23.13
15360;BMP280;7779;49.596;11.070;2023-05-09T08:47:37;98317.91;;;23.15
15360;BMP280;7779;49.596;11.070;2023-05-09T08:50:04;98301.72;;;23.16
15360;BMP280;7779;49.596;11.070;2023-05-09T08:52:32;98295.78;;;23.17
15360;BMP280;7779;49.596;11.070;2023-05-09T08:54:59;98294.06;;;23.19
15360;BMP280;7779;49.596;11.070;2023-05-09T08:57:26;98289.81;;;23.21
15360;BMP280;7779;49.596;11.070;2023-05-09T08:59:54;98284.69;;;23.20
15360;BMP280;7779;49.596;11.070;2023-05-09T09:02:20;98289.81;;;23.20
15360;BMP280;7779;49.596;11.070;2023-05-09T09:04:46;98285.56;;;23.23
15360;BMP280;7779;49.596;11.070;2023-05-09T09:07:14;98276.22;;;23.27
15360;BMP280;7779;49.596;11.070;2023-05-09T09:09:45;98278.78;;;23.28
15360;BMP280;7779;49.596;11.070;2023-05-09T09:12:15;98277.94;;;23.29
15360;BMP280;7779;49.596;11.070;2023-05-09T09:14:46;98277.94;;;23.32
15360;BMP280;7779;49.596;11.070;2023-05-09T09:17:20;98277.09;;;23.33
15360;BMP280;7779;49.596;11.070;2023-05-09T09:19:49;98273.69;;;23.34
15360;BMP280;7779;49.596;11.070;2023-05-09T09:22:18;98272.00;;;23.36
15360;BMP280;7779;49.596;11.070;2023-05-09T09:24:45;98272.03;;;23.42
15360;BMP280;7779;49.596;11.070;2023-05-09T09:27:11;98260.97;;;23.45
15360;BMP280;7779;49.596;11.070;2023-05-09T09:29:36;98262.69;;;23.47
15360;BMP280;7779;49.596;11.070;2023-05-09T09:32:04;98257.59;;;23.49
15360;BMP280;7779;49.596;11.070;2023-05-09T09:34:31;98249.06;;;23.51
15360;BMP280;7779;49.596;11.070;2023-05-09T09:36:57;98238.84;;;23.52
15360;BMP280;7779;49.596;11.070;2023-05-09T09:39:23;98250.78;;;23.52
15360;BMP280;7779;49.596;11.070;2023-05-09T09:41:49;98239.69;;;23.50
15360;BMP280;7779;49.596;11.070;2023-05-09T09:44:20;98239.69;;;23.50
15360;BMP280;7779;49.596;11.070;2023-05-09T09:46:57;98247.38;;;23.52
15360;BMP280;7779;49.596;11.070;2023-05-09T09:49:25;98231.16;;;23.51
15360;BMP280;7779;49.596;11.070;2023-05-09T09:51:58;98220.09;;;23.53
15360;BMP280;7779;49.596;11.070;2023-05-09T09:54:27;98211.63;;;23.60
15360;BMP280;7779;49.596;11.070;2023-05-09T09:56:53;98208.22;;;23.67
15360;BMP280;7779;49.596;11.070;2023-05-09T09:59:22;98192.06;;;23.76
15360;BMP280;7779;49.596;11.070;2023-05-09T10:02:03;98193.78;;;23.83
15360;BMP280;7779;49.596;11.070;2023-05-09T10:04:34;98189.53;;;23.85
15360;BMP280;7779;49.596;11.070;2023-05-09T10:07:03;98184.44;;;23.88
15360;BMP280;7779;49.596;11.070;2023-05-09T10:09:31;98183.56;;;23.92
15360;BMP280;7779;49.596;11.070;2023-05-09T10:12:02;98171.66;;;23.96
15360;BMP280;7779;49.596;11.070;2023-05-09T10:14:32;98175.06;;;23.98
15360;BMP280;7779;49.596;11.070;2023-05-09T10:17:02;98175.91;;;24.00
15360;BMP280;7779;49.596;11.070;2023-05-09T10:19:29;98177.63;;;24.04
15360;BMP280;7779;49.596;11.070;2023-05-09T10:22:04;98167.38;;;24.09
15360;BMP280;7779;49.596;11.070;2023-05-09T10:24:47;98170.81;;;24.15
15360;BMP280;7779;49.596;11.070;2023-05-09T10:27:18;98163.13;;;24.21
15360;BMP280;7779;49.596;11.070;2023-05-09T10:30:01;98152.94;;;24.27
15360;BMP280;7779;49.596;11.070;2023-05-09T10:32:47;98154.63;;;24.31
15360;BMP280;7779;49.596;11.070;2023-05-09T10:35:17;98141.81;;;24.35
15360;BMP280;7779;49.596;11.070;2023-05-09T10:37:45;98131.59;;;24.40
15360;BMP280;7779;49.596;11.070;2023-05-09T10:40:11;98129.00;;;24.46
15360;BMP280;7779;49.596;11.070;2023-05-09T10:42:42;98127.28;;;24.48
15360;BMP280;7779;49.596;11.070;2023-05-09T10:45:10;98118.72;;;24.50
15360;BMP280;7779;49.596;11.070;2023-05-09T10:47:38;98125.56;;;24.56
15360;BMP280;7779;49.596;11.070;2023-05-09T10:50:10;98115.31;;;24.63
15360;BMP280;7779;49.596;11.070;2023-05-09T10:55:57;98093.94;;;24.76
15360;BMP280;7779;49.596;11.070;2023-05-09T11:00:59;98091.38;;;24.77
15360;BMP280;7779;49.596;11.070;2023-05-09T11:03:28;98086.25;;;24.77
15360;BMP280;7779;49.596;11.070;2023-05-09T11:09:31;98069.16;;;24.79
15360;BMP280;7779;49.596;11.070;2023-05-09T11:12:11;98062.31;;;24.80
15360;BMP280;7779;49.596;11.070;2023-05-09T11:14:41;98051.19;;;24.82
15360;BMP280;7779;49.596;11.070;2023-05-09T11:17:28;98049.47;;;24.89
15360;BMP280;7779;49.596;11.070;2023-05-09T11:20:12;98040.94;;;24.96
15360;BMP280;7779;49.596;11.070;2023-05-09T11:22:40;98044.28;;;25.02
15360;BMP280;7779;49.596;11.070;2023-05-09T11:25:09;98040.84;;;25.11
15360;BMP280;7779;49.596;11.070;2023-05-09T11:27:47;98037.41;;;25.17
15360;BMP280;7779;49.596;11.070;2023-05-09T11:30:16;98032.22;;;25.23
15360;BMP280;7779;49.596;11.070;2023-05-09T11:33:00;98022.78;;;25.30
15360;BMP280;7779;49.596;11.070;2023-05-09T11:35:26;98029.59;;;25.34
15360;BMP280;7779;49.596;11.070;2023-05-09T11:37:59;98027.88;;;25.39
15360;BMP280;7779;49.596;11.070;2023-05-09T11:40:27;98013.28;;;25.42
15360;BMP280;7779;49.596;11.070;2023-05-09T11:42:55;98024.38;;;25.49
15360;BMP280;7779;49.596;11.070;2023-05-09T11:45:25;98016.66;;;25.52
15360;BMP280;7779;49.596;11.070;2023-05-09T11:47:52;98007.22;;;25.55
15360;BMP280;7779;49.596;11.070;2023-05-09T11:50:19;98003.81;;;25.59
15360;BMP280;7779;49.596;11.070;2023-05-09T11:52:47;98001.19;;;25.63
15360;BMP280;7779;49.596;11.070;2023-05-09T11:55:19;97997.75;;;25.66
15360;BMP280;7779;49.596;11.070;2023-05-09T11:57:51;97984.91;;;25.67
15360;BMP280;7779;49.596;11.070;2023-05-09T12:00:23;97979.81;;;25.64
15360;BMP280;7779;49.596;11.070;2023-05-09T12:02:50;97980.72;;;25.60
15360;BMP280;7779;49.596;11.070;2023-05-09T12:05:20;97969.56;;;25.61
15360;BMP280;7779;49.596;11.070;2023-05-09T12:07:46;97967.00;;;25.63
15360;BMP280;7779;49.596;11.070;2023-05-09T12:10:18;97968.66;;;25.67
15360;BMP280;7779;49.596;11.070;2023-05-09T12:12:49;97958.38;;;25.70
15360;BMP280;7779;49.596;11.070;2023-05-09T12:15:16;97958.38;;;25.70
15360;BMP280;7779;49.596;11.070;2023-05-09T12:17:43;97954.09;;;25.70
15360;BMP280;7779;49.596;11.070;2023-05-09T12:20:10;97954.94;;;25.72
15360;BMP280;7779;49.596;11.070;2023-05-09T12:22:36;97949.78;;;25.72
15360;BMP280;7779;49.596;11.070;2023-05-09T12:25:08;97945.47;;;25.77
15360;BMP280;7779;49.596;11.070;2023-05-09T12:27:36;97933.47;;;25.81
15360;BMP280;7779;49.596;11.070;2023-05-09T12:30:05;97926.59;;;25.84
15360;BMP280;7779;49.596;11.070;2023-05-09T12:32:36;97923.97;;;25.87
15360;BMP280;7779;49.596;11.070;2023-05-09T12:35:05;97913.66;;;25.94
15360;BMP280;7779;49.596;11.070;2023-05-09T12:37:31;97905.91;;;25.99
15360;BMP280;7779;49.596;11.070;2023-05-09T12:40:00;97910.13;;;26.04
15360;BMP280;7779;49.596;11.070;2023-05-09T12:42:34;97904.03;;;26.13
15360;BMP280;7779;49.596;11.070;2023-05-09T12:45:06;97891.97;;;26.18
15360;BMP280;7779;49.596;11.070;2023-05-09T12:47:33;97893.63;;;26.25
15360;BMP280;7779;49.596;11.070;2023-05-09T12:50:04;97894.44;;;26.31
15360;BMP280;7779;49.596;11.070;2023-05-09T12:52:41;97891.78;;;26.37
15360;BMP280;7779;49.596;11.070;2023-05-09T12:55:10;97879.75;;;26.40
15360;BMP280;7779;49.596;11.070;2023-05-09T12:57:40;97887.38;;;26.46
15360;BMP280;7779;49.596;11.070;2023-05-09T13:00:09;97881.34;;;26.50
15360;BMP280;7779;49.596;11.070;2023-05-09T13:02:39;97874.38;;;26.57
15360;BMP280;7779;49.596;11.070;2023-05-09T13:05:17;97870.06;;;26.59
15360;BMP280;7779;49.596;11.070;2023-05-09T13:07:48;97870.88;;;26.62
15360;BMP280;7779;49.596;11.070;2023-05-09T13:10:24;97858.00;;;26.64
15360;BMP280;7779;49.596;11.070;2023-05-09T13:12:52;97846.91;;;26.63
15360;BMP280;7779;49.596;11.070;2023-05-09T13:15:20;97849.41;;;26.66
15360;BMP280;7779;49.596;11.070;2023-05-09T13:17:51;97848.50;;;26.70
15360;BMP280;7779;49.596;11.070;2023-05-09T13:20:17;97848.50;;;26.70
15360;BMP280;7779;49.596;11.070;2023-05-09T13:22:44;97839.00;;;26.75
15360;BMP280;7779;49.596;11.070;2023-05-09T13:25:11;97843.22;;;26.79
15360;BMP280;7779;49.596;11.070;2023-05-09T13:27:37;97838.03;;;26.82
15360;BMP280;7779;49.596;11.070;2023-05-09T13:30:05;97838.03;;;26.82
15360;BMP280;7779;49.596;11.070;2023-05-09T13:32:33;97837.22;;;26.83
15360;BMP280;7779;49.596;11.070;2023-05-09T13:34:58;97817.47;;;26.82
15360;BMP280;7779;49.596;11.070;2023-05-09T13:37:25;97812.34;;;26.82
15360;BMP280;7779;49.596;11.070;2023-05-09T13:39:52;97817.47;;;26.82
15360;BMP280;7779;49.596;11.070;2023-05-09T13:42:19;97814.00;;;26.86
15360;BMP280;7779;49.596;11.070;2023-05-09T13:44:44;97817.38;;;26.91
15360;BMP280;7779;49.596;11.070;2023-05-09T13:47:10;97798.44;;;26.95
15360;BMP280;7779;49.596;11.070;2023-05-09T13:49:36;97797.50;;;27.00
15360;BMP280;7779;49.596;11.070;2023-05-09T13:52:03;97798.28;;;27.04
15360;BMP280;7779;49.596;11.070;2023-05-09T13:54:29;97798.19;;;27.10
15360;BMP280;7779;49.596;11.070;2023-05-09T13:57:03;97790.44;;;27.12
15360;BMP280;7779;49.596;11.070;2023-05-09T13:59:30;97800.69;;;27.14
15360;BMP280;7779;49.596;11.070;2023-05-09T14:01:59;97780.91;;;27.17
15360;BMP280;7779;49.596;11.070;2023-05-09T14:04:30;97783.44;;;27.20
15360;BMP280;7779;49.596;11.070;2023-05-09T14:06:59;97782.56;;;27.21
15360;BMP280;7779;49.596;11.070;2023-05-09T14:09:26;97782.56;;;27.20
15360;BMP280;7779;49.596;11.070;2023-05-09T14:11:53;97776.59;;;27.19
15360;BMP280;7779;49.596;11.070;2023-05-09T14:14:21;97780.09;;;27.17
15360;BMP280;7779;49.596;11.070;2023-05-09T14:16:47;97771.56;;;27.13
15360;BMP280;7779;49.596;11.070;2023-05-09T14:19:15;97762.19;;;27.10
15360;BMP280;7779;49.596;11.070;2023-05-09T14:21:44;97766.50;;;27.08
15360;BMP280;7779;49.596;11.070;2023-05-09T14:24:13;97754.59;;;27.04
15360;BMP280;7779;49.596;11.070;2023-05-09T14:26:39;97755.47;;;27.03
15360;BMP280;7779;49.596;11.070;2023-05-09T14:29:05;97753.78;;;27.02
15360;BMP280;7779;49.596;11.070;2023-05-09T14:31:31;97748.66;;;27.00